sensor_id;sensor_type;location;lat;lon;timestamp;temperature;humidity
71096;DHT22;58753;49.440;11.126;2023-09-07T00:00:16;14.35;86.48
71096;DHT22;58753;49.440;11.126;2023-09-07T00:02:46;14.32;86.57
71096;DHT22;58753;49.440;11.126;2023-09-07T00:05:13;14.33;86.76
71096;DHT22;58753;49.440;11.126;2023-09-07T00:07:39;14.32;86.72
71096;DHT22;58753;49.440;11.126;2023-09-07T00:10:07;14.29;86.60
71096;DHT22;58753;49.440;11.126;2023-09-07T00:12:35;14.26;86.59
71096;DHT22;58753;49.440;11.126;2023-09-07T00:15:05;14.22;86.69
71096;DHT22;58753;49.440;11.126;2023-09-07T00:17:31;14.18;86.60
71096;DHT22;58753;49.440;11.126;2023-09-07T00:19:57;14.18;86.70
71096;DHT22;58753;49.440;11.126;2023-09-07T00:22:23;14.12;86.83
71096;DHT22;58753;49.440;11.126;2023-09-07T00:24:50;14.08;86.86
71096;DHT22;58753;49.440;11.126;2023-09-07T00:27:21;14.11;86.83
71096;DHT22;58753;49.440;11.126;2023-09-07T00:29:46;14.01;86.76
71096;DHT22;58753;49.440;11.126;2023-09-07T00:32:14;14.00;86.74
71096;DHT22;58753;49.440;11.126;2023-09-07T00:34:39;13.97;86.75
71096;DHT22;58753;49.440;11.126;2023-09-07T00:37:05;13.95;86.87
71096;DHT22;58753;49.440;11.126;2023-09-07T00:39:32;13.92;87.00
71096;DHT22;58753;49.440;11.126;2023-09-07T00:42:00;13.92;87.01
71096;DHT22;58753;49.440;11.126;2023-09-07T00:44:28;13.94;87.03
71096;DHT22;58753;49.440;11.126;2023-09-07T00:46:56;13.92;87.09
71096;DHT22;58753;49.440;11.126;2023-09-07T00:49:23;13.94;86.97
71096;DHT22;58753;49.440;11.126;2023-09-07T00:51:49;13.88;86.83
71096;DHT22;58753;49.440;11.126;2023-09-07T00:54:16;13.82;86.99
71096;DHT22;58753;49.440;11.126;2023-09-07T00:56:42;13.82;87.13
71096;DHT22;58753;49.440;11.126;2023-09-07T00:59:08;13.77;87.13
71096;DHT22;58753;49.440;11.126;2023-09-07T01:01:35;13.78;87.17
71096;DHT22;58753;49.440;11.126;2023-09-07T01:04:00;13.74;87.25
71096;DHT22;58753;49.440;11.126;2023-09-07T01:06:32;13.68;86.99
71096;DHT22;58753;49.440;11.126;2023-09-07T01:09:03;13.58;87.09
71096;DHT22;58753;49.440;11.126;2023-09-07T01:11:36;13.54;87.19
71096;DHT22;58753;49.440;11.126;2023-09-07T01:14:02;13.51;87.42
71096;DHT22;58753;49.440;11.126;2023-09-07T01:16:29;13.53;87.61
71096;DHT22;58753;49.440;11.126;2023-09-07T01:18:55;13.53;87.62
71096;DHT22;58753;49.440;11.126;2023-09-07T01:21:22;13.53;87.45
71096;DHT22;58753;49.440;11.126;2023-09-07T01:23:48;13.51;87.50
71096;DHT22;58753;49.440;11.126;2023-09-07T01:26:14;13.48;87.62
71096;DHT22;58753;49.440;11.126;2023-09-07T01:28:40;13.50;87.64
71096;DHT22;58753;49.440;11.126;2023-09-07T01:31:07;13.48;87.58
71096;DHT22;58753;49.440;11.126;2023-09-07T01:33:32;13.47;87.56
71096;DHT22;58753;49.440;11.126;2023-09-07T01:36:00;13.46;87.45
71096;DHT22;58753;49.440;11.126;2023-09-07T01:38:30;13.40;87.67
71096;DHT22;58753;49.440;11.126;2023-09-07T01:40:55;13.36;87.53
71096;DHT22;58753;49.440;11.126;2023-09-07T01:43:21;13.35;87.40
71096;DHT22;58753;49.440;11.126;2023-09-07T01:45:46;13.32;87.42
71096;DHT22;58753;49.440;11.126;2023-09-07T01:48:13;13.28;87.65
71096;DHT22;58753;49.440;11.126;2023-09-07T01:50:39;13.26;87.52
71096;DHT22;58753;49.440;11.126;2023-09-07T01:53:04;13.24;87.49
71096;DHT22;58753;49.440;11.126;2023-09-07T01:55:33;13.19;87.69
71096;DHT22;58753;49.440;11.126;2023-09-07T01:57:58;13.17;87.77
71096;DHT22;58753;49.440;11.126;2023-09-07T02:00:29;13.15;87.59
71096;DHT22;58753;49.440;11.126;2023-09-07T02:02:57;13.13;87.69
71096;DHT22;58753;49.440;11.126;2023-09-07T02:05:22;13.10;87.87
71096;DHT22;58753;49.440;11.126;2023-09-07T02:07:48;13.12;87.94
71096;DHT22;58753;49.440;11.126;2023-09-07T02:10:15;13.10;87.96
71096;DHT22;58753;49.440;11.126;2023-09-07T02:12:41;13.07;87.98
71096;DHT22;58753;49.440;11.126;2023-09-07T02:15:09;13.12;87.98
71096;DHT22;58753;49.440;11.126;2023-09-07T02:17:36;13.05;87.89
71096;DHT22;58753;49.440;11.126;2023-09-07T02:20:02;13.03;87.89
71096;DHT22;58753;49.440;11.126;2023-09-07T02:22:33;13.03;87.82
71096;DHT22;58753;49.440;11.126;2023-09-07T02:25:01;12.99;87.87
71096;DHT22;58753;49.440;11.126;2023-09-07T02:27:26;12.97;87.95
71096;DHT22;58753;49.440;11.126;2023-09-07T02:29:56;12.92;87.99
71096;DHT22;58753;49.440;11.126;2023-09-07T02:32:21;12.89;87.95
71096;DHT22;58753;49.440;11.126;2023-09-07T02:34:47;12.86;88.16
71096;DHT22;58753;49.440;11.126;2023-09-07T02:37:13;12.88;88.22
71096;DHT22;58753;49.440;11.126;2023-09-07T02:39:42;12.85;87.95
71096;DHT22;58753;49.440;11.126;2023-09-07T02:42:07;12.78;87.97
71096;DHT22;58753;49.440;11.126;2023-09-07T02:44:35;12.69;87.70
71096;DHT22;58753;49.440;11.126;2023-09-07T02:47:01;12.68;88.06
71096;DHT22;58753;49.440;11.126;2023-09-07T02:49:26;12.65;88.02
71096;DHT22;58753;49.440;11.126;2023-09-07T02:51:52;12.61;87.97
71096;DHT22;58753;49.440;11.126;2023-09-07T02:54:20;12.58;88.08
71096;DHT22;58753;49.440;11.126;2023-09-07T02:56:45;12.56;88.22
71096;DHT22;58753;49.440;11.126;2023-09-07T02:59:13;12.52;88.08
71096;DHT22;58753;49.440;11.126;2023-09-07T03:01:38;12.51;88.26
71096;DHT22;58753;49.440;11.126;2023-09-07T03:04:05;12.52;88.36
71096;DHT22;58753;49.440;11.126;2023-09-07T03:06:31;12.49;88.34
71096;DHT22;58753;49.440;11.126;2023-09-07T03:08:56;12.48;88.26
71096;DHT22;58753;49.440;11.126;2023-09-07T03:11:22;12.44;88.24
71096;DHT22;58753;49.440;11.126;2023-09-07T03:13:49;12.41;88.24
71096;DHT22;58753;49.440;11.126;2023-09-07T03:16:15;12.38;88.33
71096;DHT22;58753;49.440;11.126;2023-09-07T03:18:45;12.38;88.33
71096;DHT22;58753;49.440;11.126;2023-09-07T03:21:10;12.35;88.45
71096;DHT22;58753;49.440;11.126;2023-09-07T03:23:36;12.37;88.49
71096;DHT22;58753;49.440;11.126;2023-09-07T03:26:01;12.32;88.30
71096;DHT22;58753;49.440;11.126;2023-09-07T03:28:27;12.28;88.21
71096;DHT22;58753;49.440;11.126;2023-09-07T03:30:53;12.30;88.50
71096;DHT22;58753;49.440;11.126;2023-09-07T03:33:19;12.25;88.29
71096;DHT22;58753;49.440;11.126;2023-09-07T03:35:47;12.24;88.36
71096;DHT22;58753;49.440;11.126;2023-09-07T03:38:12;12.24;88.45
71096;DHT22;58753;49.440;11.126;2023-09-07T03:40:41;12.20;88.55
71096;DHT22;58753;49.440;11.126;2023-09-07T03:43:06;12.21;88.39
71096;DHT22;58753;49.440;11.126;2023-09-07T03:45:32;12.18;88.49
71096;DHT22;58753;49.440;11.126;2023-09-07T03:47:57;12.13;88.10
71096;DHT22;58753;49.440;11.126;2023-09-07T03:50:22;12.10;88.41
71096;DHT22;58753;49.440;11.126;2023-09-07T03:52:50;12.05;88.49
71096;DHT22;58753;49.440;11.126;2023-09-07T03:55:18;12.07;88.41
71096;DHT22;58753;49.440;11.126;2023-09-07T03:57:43;12.02;88.42
71096;DHT22;58753;49.440;11.126;2023-09-07T04:00:09;12.02;88.65
71096;DHT22;58753;49.440;11.126;2023-09-07T04:02:40;12.04;88.55
71096;DHT22;58753;49.440;11.126;2023-09-07T04:05:05;12.01;88.47
71096;DHT22;58753;49.440;11.126;2023-09-07T04:07:33;11.97;88.36
71096;DHT22;58753;49.440;11.126;2023-09-07T04:09:59;11.89;88.33
71096;DHT22;58753;49.440;11.126;2023-09-07T04:12:26;11.87;88.49
71096;DHT22;58753;49.440;11.126;2023-09-07T04:14:54;11.83;88.37
71096;DHT22;58753;49.440;11.126;2023-09-07T04:17:22;11.73;88.20
71096;DHT22;58753;49.440;11.126;2023-09-07T04:19:47;11.74;88.47
71096;DHT22;58753;49.440;11.126;2023-09-07T04:22:13;11.70;88.52
71096;DHT22;58753;49.440;11.126;2023-09-07T04:24:43;11.69;88.35
71096;DHT22;58753;49.440;11.126;2023-09-07T04:27:12;11.67;88.49
71096;DHT22;58753;49.440;11.126;2023-09-07T04:29:37;11.62;88.23
71096;DHT22;58753;49.440;11.126;2023-09-07T04:32:03;11.63;88.47
71096;DHT22;58753;49.440;11.126;2023-09-07T04:34:28;11.56;88.56
71096;DHT22;58753;49.440;11.126;2023-09-07T04:36:53;11.59;88.78
71096;DHT22;58753;49.440;11.126;2023-09-07T04:39:19;11.57;88.73
71096;DHT22;58753;49.440;11.126;2023-09-07T04:41:47;11.55;88.43
71096;DHT22;58753;49.440;11.126;2023-09-07T04:44:15;11.53;88.70
71096;DHT22;58753;49.440;11.126;2023-09-07T04:46:40;11.55;88.72
71096;DHT22;58753;49.440;11.126;2023-09-07T04:49:06;11.52;88.74
71096;DHT22;58753;49.440;11.126;2023-09-07T04:51:32;11.52;88.78
71096;DHT22;58753;49.440;11.126;2023-09-07T04:53:57;11.50;88.89
71096;DHT22;58753;49.440;11.126;2023-09-07T04:56:22;11.49;88.63
71096;DHT22;58753;49.440;11.126;2023-09-07T04:58:48;11.47;88.76
71096;DHT22;58753;49.440;11.126;2023-09-07T05:01:13;11.47;88.71
71096;DHT22;58753;49.440;11.126;2023-09-07T05:03:41;11.46;88.62
71096;DHT22;58753;49.440;11.126;2023-09-07T05:06:09;11.39;88.75
71096;DHT22;58753;49.440;11.126;2023-09-07T05:08:37;11.43;88.89
71096;DHT22;58753;49.440;11.126;2023-09-07T05:11:04;11.43;88.92
71096;DHT22;58753;49.440;11.126;2023-09-07T05:13:32;11.46;89.13
71096;DHT22;58753;49.440;11.126;2023-09-07T05:15:59;11.46;88.94
71096;DHT22;58753;49.440;11.126;2023-09-07T05:18:25;11.50;88.95
71096;DHT22;58753;49.440;11.126;2023-09-07T05:20:50;11.53;89.15
71096;DHT22;58753;49.440;11.126;2023-09-07T05:23:20;11.57;89.17
71096;DHT22;58753;49.440;11.126;2023-09-07T05:25:50;11.60;89.19
71096;DHT22;58753;49.440;11.126;2023-09-07T05:28:21;11.63;89.12
71096;DHT22;58753;49.440;11.126;2023-09-07T05:30:49;11.63;88.97
71096;DHT22;58753;49.440;11.126;2023-09-07T05:33:16;11.69;89.14
71096;DHT22;58753;49.440;11.126;2023-09-07T05:35:42;11.71;88.96
71096;DHT22;58753;49.440;11.126;2023-09-07T05:38:10;11.77;89.07
71096;DHT22;58753;49.440;11.126;2023-09-07T05:40:36;11.80;89.22
71096;DHT22;58753;49.440;11.126;2023-09-07T05:43:02;11.87;89.17
71096;DHT22;58753;49.440;11.126;2023-09-07T05:45:29;11.97;89.36
71096;DHT22;58753;49.440;11.126;2023-09-07T05:47:55;12.02;89.18
71096;DHT22;58753;49.440;11.126;2023-09-07T05:50:20;12.08;89.36
71096;DHT22;58753;49.440;11.126;2023-09-07T05:52:48;12.14;89.27
71096;DHT22;58753;49.440;11.126;2023-09-07T05:55:13;12.21;89.33
71096;DHT22;58753;49.440;11.126;2023-09-07T05:57:41;12.30;89.49
71096;DHT22;58753;49.440;11.126;2023-09-07T06:00:07;12.38;89.52
71096;DHT22;58753;49.440;11.126;2023-09-07T06:02:35;12.48;89.67
71096;DHT22;58753;49.440;11.126;2023-09-07T06:05:01;12.56;89.51
71096;DHT22;58753;49.440;11.126;2023-09-07T06:07:27;12.62;89.40
71096;DHT22;58753;49.440;11.126;2023-09-07T06:09:54;12.69;89.51
71096;DHT22;58753;49.440;11.126;2023-09-07T06:12:22;12.79;89.59
71096;DHT22;58753;49.440;11.126;2023-09-07T06:14:47;12.88;89.56
71096;DHT22;58753;49.440;11.126;2023-09-07T06:17:17;12.97;89.55
71096;DHT22;58753;49.440;11.126;2023-09-07T06:19:44;13.05;89.53
71096;DHT22;58753;49.440;11.126;2023-09-07T06:22:09;13.16;89.50
71096;DHT22;58753;49.440;11.126;2023-09-07T06:24:35;13.26;89.53
71096;DHT22;58753;49.440;11.126;2023-09-07T06:27:00;13.32;89.46
71096;DHT22;58753;49.440;11.126;2023-09-07T06:29:25;13.40;89.50
71096;DHT22;58753;49.440;11.126;2023-09-07T06:31:55;13.50;89.60
71096;DHT22;58753;49.440;11.126;2023-09-07T06:34:21;13.57;89.57
71096;DHT22;58753;49.440;11.126;2023-09-07T06:36:46;13.68;89.41
71096;DHT22;58753;49.440;11.126;2023-09-07T06:39:14;13.75;89.38
71096;DHT22;58753;49.440;11.126;2023-09-07T06:41:45;13.85;89.44
71096;DHT22;58753;49.440;11.126;2023-09-07T06:44:11;13.94;89.36
71096;DHT22;58753;49.440;11.126;2023-09-07T06:46:36;14.04;89.27
71096;DHT22;58753;49.440;11.126;2023-09-07T06:49:02;14.17;89.27
71096;DHT22;58753;49.440;11.126;2023-09-07T06:51:28;14.28;89.17
71096;DHT22;58753;49.440;11.126;2023-09-07T06:53:56;14.39;89.10
71096;DHT22;58753;49.440;11.126;2023-09-07T06:56:21;14.51;88.94
71096;DHT22;58753;49.440;11.126;2023-09-07T06:58:49;14.63;88.74
71096;DHT22;58753;49.440;11.126;2023-09-07T07:01:14;14.69;88.61
71096;DHT22;58753;49.440;11.126;2023-09-07T07:03:40;14.83;88.62
71096;DHT22;58753;49.440;11.126;2023-09-07T07:06:08;14.93;88.43
71096;DHT22;58753;49.440;11.126;2023-09-07T07:08:34;15.07;88.18
71096;DHT22;58753;49.440;11.126;2023-09-07T07:10:59;15.17;88.04
71096;DHT22;58753;49.440;11.126;2023-09-07T07:13:27;15.33;87.81
71096;DHT22;58753;49.440;11.126;2023-09-07T07:15:52;15.41;87.50
71096;DHT22;58753;49.440;11.126;2023-09-07T07:18:18;15.51;87.35
71096;DHT22;58753;49.440;11.126;2023-09-07T07:20:46;15.59;87.09
71096;DHT22;58753;49.440;11.126;2023-09-07T07:23:14;15.75;86.84
71096;DHT22;58753;49.440;11.126;2023-09-07T07:25:40;15.91;86.47
71096;DHT22;58753;49.440;11.126;2023-09-07T07:28:09;16.04;86.19
71096;DHT22;58753;49.440;11.126;2023-09-07T07:30:36;16.10;85.85
71096;DHT22;58753;49.440;11.126;2023-09-07T07:33:03;16.20;85.64
71096;DHT22;58753;49.440;11.126;2023-09-07T07:35:29;16.29;85.45
71096;DHT22;58753;49.440;11.126;2023-09-07T07:37:55;16.39;85.30
71096;DHT22;58753;49.440;11.126;2023-09-07T07:40:20;16.46;85.10
71096;DHT22;58753;49.440;11.126;2023-09-07T07:42:51;16.52;84.88
71096;DHT22;58753;49.440;11.126;2023-09-07T07:45:16;16.59;84.71
71096;DHT22;58753;49.440;11.126;2023-09-07T07:47:45;16.64;84.59
71096;DHT22;58753;49.440;11.126;2023-09-07T07:50:13;16.73;84.48
71096;DHT22;58753;49.440;11.126;2023-09-07T07:52:38;16.87;84.48
71096;DHT22;58753;49.440;11.126;2023-09-07T07:55:06;17.01;84.28
71096;DHT22;58753;49.440;11.126;2023-09-07T07:57:32;17.15;84.04
71096;DHT22;58753;49.440;11.126;2023-09-07T07:59:58;17.31;83.74
71096;DHT22;58753;49.440;11.126;2023-09-07T08:02:25;17.45;83.35
71096;DHT22;58753;49.440;11.126;2023-09-07T08:04:53;17.54;82.95
71096;DHT22;58753;49.440;11.126;2023-09-07T08:07:21;17.61;82.69
71096;DHT22;58753;49.440;11.126;2023-09-07T08:09:46;17.69;82.56
71096;DHT22;58753;49.440;11.126;2023-09-07T08:12:12;17.79;82.26
71096;DHT22;58753;49.440;11.126;2023-09-07T08:14:38;17.90;81.98
71096;DHT22;58753;49.440;11.126;2023-09-07T08:17:05;18.03;81.66
71096;DHT22;58753;49.440;11.126;2023-09-07T08:19:35;18.10;81.13
71096;DHT22;58753;49.440;11.126;2023-09-07T08:22:00;18.22;80.69
71096;DHT22;58753;49.440;11.126;2023-09-07T08:24:29;18.29;80.29
71096;DHT22;58753;49.440;11.126;2023-09-07T08:26:54;18.36;79.87
71096;DHT22;58753;49.440;11.126;2023-09-07T08:29:21;18.43;79.61
71096;DHT22;58753;49.440;11.126;2023-09-07T08:31:46;18.50;79.28
71096;DHT22;58753;49.440;11.126;2023-09-07T08:34:13;18.58;78.95
71096;DHT22;58753;49.440;11.126;2023-09-07T08:36:40;18.67;78.52
71096;DHT22;58753;49.440;11.126;2023-09-07T08:39:08;18.72;78.20
71096;DHT22;58753;49.440;11.126;2023-09-07T08:41:39;18.75;77.82
71096;DHT22;58753;49.440;11.126;2023-09-07T08:44:10;18.85;77.66
71096;DHT22;58753;49.440;11.126;2023-09-07T08:46:45;19.02;77.22
71096;DHT22;58753;49.440;11.126;2023-09-07T08:49:11;19.16;76.70
71096;DHT22;58753;49.440;11.126;2023-09-07T08:51:38;19.28;76.33
71096;DHT22;58753;49.440;11.126;2023-09-07T08:54:09;19.36;75.91
71096;DHT22;58753;49.440;11.126;2023-09-07T08:56:35;19.42;75.48
71096;DHT22;58753;49.440;11.126;2023-09-07T08:59:05;19.45;74.95
71096;DHT22;58753;49.440;11.126;2023-09-07T09:01:33;19.51;74.69
71096;DHT22;58753;49.440;11.126;2023-09-07T09:04:02;19.55;74.32
71096;DHT22;58753;49.440;11.126;2023-09-07T09:06:28;19.63;73.99
71096;DHT22;58753;49.440;11.126;2023-09-07T09:08:55;19.70;73.59
71096;DHT22;58753;49.440;11.126;2023-09-07T09:11:24;19.86;73.43
71096;DHT22;58753;49.440;11.126;2023-09-07T09:13:51;19.98;72.94
71096;DHT22;58753;49.440;11.126;2023-09-07T09:16:19;20.13;72.42
71096;DHT22;58753;49.440;11.126;2023-09-07T09:18:56;20.24;72.03
71096;DHT22;58753;49.440;11.126;2023-09-07T09:21:25;20.36;71.54
71096;DHT22;58753;49.440;11.126;2023-09-07T09:23:57;20.44;71.38
71096;DHT22;58753;49.440;11.126;2023-09-07T09:26:25;20.58;71.14
71096;DHT22;58753;49.440;11.126;2023-09-07T09:28:55;20.72;70.72
71096;DHT22;58753;49.440;11.126;2023-09-07T09:31:20;20.87;70.34
71096;DHT22;58753;49.440;11.126;2023-09-07T09:33:51;20.95;69.72
71096;DHT22;58753;49.440;11.126;2023-09-07T09:36:17;20.99;69.37
71096;DHT22;58753;49.440;11.126;2023-09-07T09:38:47;21.09;69.29
71096;DHT22;58753;49.440;11.126;2023-09-07T09:41:13;21.16;69.10
71096;DHT22;58753;49.440;11.126;2023-09-07T09:43:39;21.22;68.33
71096;DHT22;58753;49.440;11.126;2023-09-07T09:46:08;21.32;67.74
71096;DHT22;58753;49.440;11.126;2023-09-07T09:48:38;21.40;66.89
71096;DHT22;58753;49.440;11.126;2023-09-07T09:51:06;21.46;66.01
71096;DHT22;58753;49.440;11.126;2023-09-07T09:53:38;21.54;65.64
71096;DHT22;58753;49.440;11.126;2023-09-07T09:56:04;21.57;65.26
71096;DHT22;58753;49.440;11.126;2023-09-07T09:58:31;21.60;65.16
71096;DHT22;58753;49.440;11.126;2023-09-07T10:01:00;21.64;64.86
71096;DHT22;58753;49.440;11.126;2023-09-07T10:03:40;21.70;64.40
71096;DHT22;58753;49.440;11.126;2023-09-07T10:06:17;21.80;64.35
71096;DHT22;58753;49.440;11.126;2023-09-07T10:08:59;21.86;64.20
71096;DHT22;58753;49.440;11.126;2023-09-07T10:11:37;22.01;64.08
71096;DHT22;58753;49.440;11.126;2023-09-07T10:14:04;22.11;63.94
71096;DHT22;58753;49.440;11.126;2023-09-07T10:16:45;22.22;63.80
71096;DHT22;58753;49.440;11.126;2023-09-07T10:19:15;22.35;63.75
71096;DHT22;58753;49.440;11.126;2023-09-07T10:21:41;22.51;63.32
71096;DHT22;58753;49.440;11.126;2023-09-07T10:24:06;22.65;63.00
71096;DHT22;58753;49.440;11.126;2023-09-07T10:26:31;22.68;62.01
71096;DHT22;58753;49.440;11.126;2023-09-07T10:29:03;22.81;61.47
71096;DHT22;58753;49.440;11.126;2023-09-07T10:31:31;22.89;61.08
71096;DHT22;58753;49.440;11.126;2023-09-07T10:34:07;22.94;59.63
71096;DHT22;58753;49.440;11.126;2023-09-07T10:36:34;22.99;59.70
71096;DHT22;58753;49.440;11.126;2023-09-07T10:39:03;23.15;59.34
71096;DHT22;58753;49.440;11.126;2023-09-07T10:41:41;23.24;59.32
71096;DHT22;58753;49.440;11.126;2023-09-07T10:44:08;23.36;59.16
71096;DHT22;58753;49.440;11.126;2023-09-07T10:46:37;23.46;58.76
71096;DHT22;58753;49.440;11.126;2023-09-07T10:49:02;23.63;58.50
71096;DHT22;58753;49.440;11.126;2023-09-07T10:51:28;23.82;57.83
71096;DHT22;58753;49.440;11.126;2023-09-07T10:53:57;23.87;56.94
71096;DHT22;58753;49.440;11.126;2023-09-07T10:56:24;23.88;56.82
71096;DHT22;58753;49.440;11.126;2023-09-07T10:58:53;23.88;56.59
71096;DHT22;58753;49.440;11.126;2023-09-07T11:01:20;24.00;56.66
71096;DHT22;58753;49.440;11.126;2023-09-07T11:03:48;24.15;56.59
71096;DHT22;58753;49.440;11.126;2023-09-07T11:06:16;24.32;56.33
71096;DHT22;58753;49.440;11.126;2023-09-07T11:08:44;24.51;55.19
71096;DHT22;58753;49.440;11.126;2023-09-07T11:11:10;24.63;53.59
71096;DHT22;58753;49.440;11.126;2023-09-07T11:13:38;24.72;53.50
71096;DHT22;58753;49.440;11.126;2023-09-07T11:16:07;24.82;53.30
71096;DHT22;58753;49.440;11.126;2023-09-07T11:18:33;24.96;53.05
71096;DHT22;58753;49.440;11.126;2023-09-07T11:21:02;25.07;52.77
71096;DHT22;58753;49.440;11.126;2023-09-07T11:23:29;25.27;52.58
71096;DHT22;58753;49.440;11.126;2023-09-07T11:26:07;25.43;52.10
71096;DHT22;58753;49.440;11.126;2023-09-07T11:28:32;25.56;51.57
71096;DHT22;58753;49.440;11.126;2023-09-07T11:31:00;25.63;50.63
71096;DHT22;58753;49.440;11.126;2023-09-07T11:33:31;25.68;49.81
71096;DHT22;58753;49.440;11.126;2023-09-07T11:35:57;25.82;49.86
71096;DHT22;58753;49.440;11.126;2023-09-07T11:38:23;25.99;50.15
71096;DHT22;58753;49.440;11.126;2023-09-07T11:40:48;26.09;49.52
71096;DHT22;58753;49.440;11.126;2023-09-07T11:43:17;26.26;49.44
71096;DHT22;58753;49.440;11.126;2023-09-07T11:45:46;26.36;48.87
71096;DHT22;58753;49.440;11.126;2023-09-07T11:48:12;26.42;48.30
71096;DHT22;58753;49.440;11.126;2023-09-07T11:50:38;26.43;48.09
71096;DHT22;58753;49.440;11.126;2023-09-07T11:53:09;26.39;47.40
71096;DHT22;58753;49.440;11.126;2023-09-07T11:55:35;26.48;47.41
71096;DHT22;58753;49.440;11.126;2023-09-07T11:58:01;26.39;46.28
71096;DHT22;58753;49.440;11.126;2023-09-07T12:00:27;26.50;46.57
71096;DHT22;58753;49.440;11.126;2023-09-07T12:02:56;26.60;46.84
71096;DHT22;58753;49.440;11.126;2023-09-07T12:05:24;26.62;46.35
71096;DHT22;58753;49.440;11.126;2023-09-07T12:07:52;26.69;46.31
71096;DHT22;58753;49.440;11.126;2023-09-07T12:10:17;26.82;46.32
71096;DHT22;58753;49.440;11.126;2023-09-07T12:12:43;27.03;46.16
71096;DHT22;58753;49.440;11.126;2023-09-07T12:15:10;27.21;45.65
71096;DHT22;58753;49.440;11.126;2023-09-07T12:17:38;27.31;45.63
71096;DHT22;58753;49.440;11.126;2023-09-07T12:20:04;27.23;44.64
71096;DHT22;58753;49.440;11.126;2023-09-07T12:22:36;27.27;44.84
71096;DHT22;58753;49.440;11.126;2023-09-07T12:25:03;27.27;44.26
71096;DHT22;58753;49.440;11.126;2023-09-07T12:27:33;27.40;44.62
71096;DHT22;58753;49.440;11.126;2023-09-07T12:30:02;27.48;44.95
71096;DHT22;58753;49.440;11.126;2023-09-07T12:32:30;27.69;45.04
71096;DHT22;58753;49.440;11.126;2023-09-07T12:34:55;27.91;44.73
71096;DHT22;58753;49.440;11.126;2023-09-07T12:37:23;28.22;44.22
71096;DHT22;58753;49.440;11.126;2023-09-07T12:39:49;28.42;43.93
71096;DHT22;58753;49.440;11.126;2023-09-07T12:42:17;28.46;43.48
71096;DHT22;58753;49.440;11.126;2023-09-07T12:44:43;28.46;43.42
71096;DHT22;58753;49.440;11.126;2023-09-07T12:47:11;28.55;43.44
71096;DHT22;58753;49.440;11.126;2023-09-07T12:49:36;28.59;43.43
71096;DHT22;58753;49.440;11.126;2023-09-07T12:52:02;28.53;42.99
71096;DHT22;58753;49.440;11.126;2023-09-07T12:54:34;28.42;42.44
71096;DHT22;58753;49.440;11.126;2023-09-07T12:57:01;28.47;43.14
71096;DHT22;58753;49.440;11.126;2023-09-07T12:59:28;28.56;43.38
71096;DHT22;58753;49.440;11.126;2023-09-07T13:01:53;28.66;43.62
71096;DHT22;58753;49.440;11.126;2023-09-07T13:04:21;28.73;43.70
71096;DHT22;58753;49.440;11.126;2023-09-07T13:06:49;28.71;43.81
71096;DHT22;58753;49.440;11.126;2023-09-07T13:09:16;28.80;43.88
71096;DHT22;58753;49.440;11.126;2023-09-07T13:11:42;28.84;44.02
71096;DHT22;58753;49.440;11.126;2023-09-07T13:14:07;28.84;43.60
71096;DHT22;58753;49.440;11.126;2023-09-07T13:16:38;28.93;44.02
71096;DHT22;58753;49.440;11.126;2023-09-07T13:19:05;28.97;43.96
71096;DHT22;58753;49.440;11.126;2023-09-07T13:21:31;28.93;43.76
71096;DHT22;58753;49.440;11.126;2023-09-07T13:23:59;29.00;43.81
71096;DHT22;58753;49.440;11.126;2023-09-07T13:26:24;28.93;43.13
71096;DHT22;58753;49.440;11.126;2023-09-07T13:28:52;28.91;42.89
71096;DHT22;58753;49.440;11.126;2023-09-07T13:31:17;29.07;43.25
71096;DHT22;58753;49.440;11.126;2023-09-07T13:33:42;29.30;43.46
71096;DHT22;58753;49.440;11.126;2023-09-07T13:36:10;29.47;43.71
71096;DHT22;58753;49.440;11.126;2023-09-07T13:38:36;29.69;43.79
71096;DHT22;58753;49.440;11.126;2023-09-07T13:41:01;29.75;42.71
71096;DHT22;58753;49.440;11.126;2023-09-07T13:43:26;29.83;42.67
71096;DHT22;58753;49.440;11.126;2023-09-07T13:45:52;29.81;42.72
71096;DHT22;58753;49.440;11.126;2023-09-07T13:48:17;29.81;43.06
71096;DHT22;58753;49.440;11.126;2023-09-07T13:50:43;29.78;43.29
71096;DHT22;58753;49.440;11.126;2023-09-07T13:53:08;29.81;43.48
71096;DHT22;58753;49.440;11.126;2023-09-07T13:55:33;29.75;43.15
71096;DHT22;58753;49.440;11.126;2023-09-07T13:58:00;29.72;43.67
71096;DHT22;58753;49.440;11.126;2023-09-07T14:00:28;29.71;43.35
71096;DHT22;58753;49.440;11.126;2023-09-07T14:02:53;29.65;43.45
71096;DHT22;58753;49.440;11.126;2023-09-07T14:05:19;29.71;43.48
71096;DHT22;58753;49.440;11.126;2023-09-07T14:07:44;29.78;43.61
71096;DHT22;58753;49.440;11.126;2023-09-07T14:10:12;29.81;43.65
71096;DHT22;58753;49.440;11.126;2023-09-07T14:12:37;29.82;43.24
71096;DHT22;58753;49.440;11.126;2023-09-07T14:15:03;29.75;42.27
71096;DHT22;58753;49.440;11.126;2023-09-07T14:17:28;29.85;42.76
71096;DHT22;58753;49.440;11.126;2023-09-07T14:19:54;29.88;42.90
71096;DHT22;58753;49.440;11.126;2023-09-07T14:22:19;29.92;42.58
71096;DHT22;58753;49.440;11.126;2023-09-07T14:24:49;30.01;43.02
71096;DHT22;58753;49.440;11.126;2023-09-07T14:27:17;30.08;43.32
71096;DHT22;58753;49.440;11.126;2023-09-07T14:29:45;30.10;43.00
71096;DHT22;58753;49.440;11.126;2023-09-07T14:32:10;30.17;42.92
71096;DHT22;58753;49.440;11.126;2023-09-07T14:34:36;30.16;42.67
71096;DHT22;58753;49.440;11.126;2023-09-07T14:37:04;30.08;41.25
71096;DHT22;58753;49.440;11.126;2023-09-07T14:39:29;30.06;41.63
71096;DHT22;58753;49.440;11.126;2023-09-07T14:41:55;30.09;41.72
71096;DHT22;58753;49.440;11.126;2023-09-07T14:44:20;29.99;40.46
71096;DHT22;58753;49.440;11.126;2023-09-07T14:46:48;29.95;40.88
71096;DHT22;58753;49.440;11.126;2023-09-07T14:49:17;29.98;41.35
71096;DHT22;58753;49.440;11.126;2023-09-07T14:51:43;29.96;41.23
71096;DHT22;58753;49.440;11.126;2023-09-07T14:54:10;29.81;40.48
71096;DHT22;58753;49.440;11.126;2023-09-07T14:56:35;29.75;40.66
71096;DHT22;58753;49.440;11.126;2023-09-07T14:59:01;29.59;40.60
71096;DHT22;58753;49.440;11.126;2023-09-07T15:01:27;29.51;40.81
71096;DHT22;58753;49.440;11.126;2023-09-07T15:03:52;29.44;40.82
71096;DHT22;58753;49.440;11.126;2023-09-07T15:06:18;29.39;41.49
71096;DHT22;58753;49.440;11.126;2023-09-07T15:08:44;29.34;41.49
71096;DHT22;58753;49.440;11.126;2023-09-07T15:11:12;29.14;41.37
71096;DHT22;58753;49.440;11.126;2023-09-07T15:13:38;28.91;41.28